sensor_id;sensor_type;location;lat;lon;timestamp;P1;durP1;ratioP1;P2;durP2;ratioP2
55150;SDS011;41041;43.162;20.538;2023-03-21T00:01:55;23.20;;;11.30;;
55150;SDS011;41041;43.162;20.538;2023-03-21T00:04:22;24.05;;;11.40;;
55150;SDS011;41041;43.162;20.538;2023-03-21T00:06:48;26.30;;;13.30;;
55150;SDS011;41041;43.162;20.538;2023-03-21T00:09:25;20.98;;;11.38;;
55150;SDS011;41041;43.162;20.538;2023-03-21T00:11:51;20.02;;;11.35;;
55150;SDS011;41041;43.162;20.538;2023-03-21T00:14:17;28.08;;;11.80;;
55150;SDS011;41041;43.162;20.538;2023-03-21T00:16:44;21.00;;;12.93;;
55150;SDS011;41041;43.162;20.538;2023-03-21T00:19:15;22.77;;;13.20;;
55150;SDS011;41041;43.162;20.538;2023-03-21T00:21:41;34.03;;;15.23;;
55150;SDS011;41041;43.162;20.538;2023-03-21T00:24:08;31.45;;;14.57;;
55150;SDS011;41041;43.162;20.538;2023-03-21T00:26:34;36.17;;;15.50;;
55150;SDS011;41041;43.162;20.538;2023-03-21T00:29:02;42.13;;;15.77;;
55150;SDS011;41041;43.162;20.538;2023-03-21T00:31:28;42.17;;;15.43;;
55150;SDS011;41041;43.162;20.538;2023-03-21T00:33:54;35.97;;;16.50;;
55150;SDS011;41041;43.162;20.538;2023-03-21T00:36:20;38.78;;;15.35;;
55150;SDS011;41041;43.162;20.538;2023-03-21T00:38:49;28.92;;;12.55;;
55150;SDS011;41041;43.162;20.538;2023-03-21T00:41:15;29.83;;;15.75;;
55150;SDS011;41041;43.162;20.538;2023-03-21T00:43:42;22.95;;;12.68;;
55150;SDS011;41041;43.162;20.538;2023-03-21T00:46:08;24.42;;;14.05;;
55150;SDS011;41041;43.162;20.538;2023-03-21T00:48:34;49.80;;;21.88;;
55150;SDS011;41041;43.162;20.538;2023-03-21T00:51:00;46.67;;;19.10;;
55150;SDS011;41041;43.162;20.538;2023-03-21T00:56:00;37.92;;;17.58;;
55150;SDS011;41041;43.162;20.538;2023-03-21T00:58:26;41.67;;;17.83;;
55150;SDS011;41041;43.162;20.538;2023-03-21T01:00:55;47.53;;;14.27;;
55150;SDS011;41041;43.162;20.538;2023-03-21T01:03:21;27.85;;;16.75;;
55150;SDS011;41041;43.162;20.538;2023-03-21T01:05:50;31.73;;;18.85;;
55150;SDS011;41041;43.162;20.538;2023-03-21T01:08:26;29.15;;;14.90;;
55150;SDS011;41041;43.162;20.538;2023-03-21T01:13:43;33.88;;;19.75;;
55150;SDS011;41041;43.162;20.538;2023-03-21T01:16:10;30.65;;;16.85;;
55150;SDS011;41041;43.162;20.538;2023-03-21T01:18:36;30.55;;;16.73;;
55150;SDS011;41041;43.162;20.538;2023-03-21T01:21:05;30.35;;;16.85;;
55150;SDS011;41041;43.162;20.538;2023-03-21T01:23:31;35.78;;;17.48;;
55150;SDS011;41041;43.162;20.538;2023-03-21T01:25:57;35.88;;;19.50;;
55150;SDS011;41041;43.162;20.538;2023-03-21T01:28:24;44.50;;;18.75;;
55150;SDS011;41041;43.162;20.538;2023-03-21T01:30:52;26.33;;;15.55;;
55150;SDS011;41041;43.162;20.538;2023-03-21T01:33:18;25.55;;;14.77;;
55150;SDS011;41041;43.162;20.538;2023-03-21T01:35:45;24.85;;;13.20;;
55150;SDS011;41041;43.162;20.538;2023-03-21T01:38:11;21.52;;;11.80;;
55150;SDS011;41041;43.162;20.538;2023-03-21T01:40:37;19.48;;;12.07;;
55150;SDS011;41041;43.162;20.538;2023-03-21T01:43:03;25.90;;;13.75;;
55150;SDS011;41041;43.162;20.538;2023-03-21T01:48:19;29.98;;;14.02;;
55150;SDS011;41041;43.162;20.538;2023-03-21T01:50:47;38.85;;;13.93;;
55150;SDS011;41041;43.162;20.538;2023-03-21T01:53:13;19.83;;;12.30;;
55150;SDS011;41041;43.162;20.538;2023-03-21T01:55:40;45.25;;;11.82;;
55150;SDS011;41041;43.162;20.538;2023-03-21T01:58:07;23.85;;;12.02;;
55150;SDS011;41041;43.162;20.538;2023-03-21T02:00:38;23.50;;;12.65;;
55150;SDS011;41041;43.162;20.538;2023-03-21T02:03:05;26.53;;;14.27;;
55150;SDS011;41041;43.162;20.538;2023-03-21T02:08:04;25.50;;;11.93;;
55150;SDS011;41041;43.162;20.538;2023-03-21T02:10:44;25.50;;;10.93;;
55150;SDS011;41041;43.162;20.538;2023-03-21T02:13:12;83.60;;;13.77;;
55150;SDS011;41041;43.162;20.538;2023-03-21T02:15:40;28.90;;;11.02;;
55150;SDS011;41041;43.162;20.538;2023-03-21T02:26:58;24.70;;;11.85;;
55150;SDS011;41041;43.162;20.538;2023-03-21T02:29:57;32.92;;;13.23;;
55150;SDS011;41041;43.162;20.538;2023-03-21T02:32:53;19.73;;;11.80;;
55150;SDS011;41041;43.162;20.538;2023-03-21T02:38:02;33.25;;;14.40;;
55150;SDS011;41041;43.162;20.538;2023-03-21T02:40:44;37.63;;;12.77;;
55150;SDS011;41041;43.162;20.538;2023-03-21T02:43:23;32.92;;;12.20;;
55150;SDS011;41041;43.162;20.538;2023-03-21T02:46:00;23.15;;;11.50;;
55150;SDS011;41041;43.162;20.538;2023-03-21T02:51:26;55.47;;;14.57;;
55150;SDS011;41041;43.162;20.538;2023-03-21T02:54:00;28.50;;;15.98;;
55150;SDS011;41041;43.162;20.538;2023-03-21T02:56:30;26.25;;;16.50;;
55150;SDS011;41041;43.162;20.538;2023-03-21T02:58:58;54.33;;;17.80;;
55150;SDS011;41041;43.162;20.538;2023-03-21T03:01:25;24.10;;;16.52;;
55150;SDS011;41041;43.162;20.538;2023-03-21T03:03:50;26.02;;;15.63;;
55150;SDS011;41041;43.162;20.538;2023-03-21T03:06:20;18.42;;;11.88;;
55150;SDS011;41041;43.162;20.538;2023-03-21T03:19:30;33.97;;;12.07;;
55150;SDS011;41041;43.162;20.538;2023-03-21T03:22:02;43.80;;;14.48;;
55150;SDS011;41041;43.162;20.538;2023-03-21T03:29:27;25.08;;;13.88;;
55150;SDS011;41041;43.162;20.538;2023-03-21T03:31:56;24.63;;;14.32;;
55150;SDS011;41041;43.162;20.538;2023-03-21T03:34:24;19.23;;;13.82;;
55150;SDS011;41041;43.162;20.538;2023-03-21T03:36:58;24.48;;;15.10;;
55150;SDS011;41041;43.162;20.538;2023-03-21T03:39:29;22.58;;;14.20;;
55150;SDS011;41041;43.162;20.538;2023-03-21T03:41:59;23.23;;;14.73;;
55150;SDS011;41041;43.162;20.538;2023-03-21T03:44:26;32.60;;;15.13;;
55150;SDS011;41041;43.162;20.538;2023-03-21T03:49:23;20.98;;;12.98;;
55150;SDS011;41041;43.162;20.538;2023-03-21T03:52:08;19.38;;;11.48;;
55150;SDS011;41041;43.162;20.538;2023-03-21T03:54:37;28.92;;;12.35;;
55150;SDS011;41041;43.162;20.538;2023-03-21T03:57:04;21.92;;;13.35;;
55150;SDS011;41041;43.162;20.538;2023-03-21T03:59:32;19.90;;;12.90;;
55150;SDS011;41041;43.162;20.538;2023-03-21T04:01:59;26.60;;;13.50;;
55150;SDS011;41041;43.162;20.538;2023-03-21T04:04:25;81.57;;;15.13;;
55150;SDS011;41041;43.162;20.538;2023-03-21T04:06:52;42.97;;;13.73;;
55150;SDS011;41041;43.162;20.538;2023-03-21T04:09:18;40.63;;;13.77;;
55150;SDS011;41041;43.162;20.538;2023-03-21T04:11:44;43.25;;;13.13;;
55150;SDS011;41041;43.162;20.538;2023-03-21T04:14:10;46.67;;;13.65;;
55150;SDS011;41041;43.162;20.538;2023-03-21T04:16:36;35.53;;;13.52;;
55150;SDS011;41041;43.162;20.538;2023-03-21T04:19:03;26.55;;;12.18;;
55150;SDS011;41041;43.162;20.538;2023-03-21T04:21:29;116.72;;;17.23;;
55150;SDS011;41041;43.162;20.538;2023-03-21T04:23:55;111.53;;;17.10;;
55150;SDS011;41041;43.162;20.538;2023-03-21T04:26:22;28.65;;;11.55;;
55150;SDS011;41041;43.162;20.538;2023-03-21T04:28:49;28.42;;;13.57;;
55150;SDS011;41041;43.162;20.538;2023-03-21T04:31:16;43.22;;;12.20;;
55150;SDS011;41041;43.162;20.538;2023-03-21T04:33:45;35.72;;;13.07;;
55150;SDS011;41041;43.162;20.538;2023-03-21T04:36:11;22.65;;;12.18;;
55150;SDS011;41041;43.162;20.538;2023-03-21T04:38:49;151.48;;;16.33;;
55150;SDS011;41041;43.162;20.538;2023-03-21T04:41:15;39.42;;;12.55;;
55150;SDS011;41041;43.162;20.538;2023-03-21T04:43:41;22.05;;;11.82;;
55150;SDS011;41041;43.162;20.538;2023-03-21T04:46:08;94.05;;;14.52;;
55150;SDS011;41041;43.162;20.538;2023-03-21T04:48:34;36.20;;;11.43;;
55150;SDS011;41041;43.162;20.538;2023-03-21T04:51:01;25.65;;;13.55;;
55150;SDS011;41041;43.162;20.538;2023-03-21T04:53:27;45.60;;;12.73;;
55150;SDS011;41041;43.162;20.538;2023-03-21T04:55:53;54.50;;;12.60;;
55150;SDS011;41041;43.162;20.538;2023-03-21T04:58:27;23.92;;;12.00;;
55150;SDS011;41041;43.162;20.538;2023-03-21T05:00:54;20.02;;;11.98;;
55150;SDS011;41041;43.162;20.538;2023-03-21T05:03:22;30.50;;;12.75;;
55150;SDS011;41041;43.162;20.538;2023-03-21T05:05:49;21.58;;;12.68;;
55150;SDS011;41041;43.162;20.538;2023-03-21T05:08:15;26.83;;;12.50;;
55150;SDS011;41041;43.162;20.538;2023-03-21T05:13:46;22.05;;;12.55;;
55150;SDS011;41041;43.162;20.538;2023-03-21T05:16:12;19.77;;;12.75;;
55150;SDS011;41041;43.162;20.538;2023-03-21T05:18:38;34.25;;;14.55;;
55150;SDS011;41041;43.162;20.538;2023-03-21T05:21:04;40.30;;;14.48;;
55150;SDS011;41041;43.162;20.538;2023-03-21T05:23:35;79.50;;;15.50;;
55150;SDS011;41041;43.162;20.538;2023-03-21T05:26:05;20.80;;;12.68;;
55150;SDS011;41041;43.162;20.538;2023-03-21T05:28:32;21.95;;;13.68;;
55150;SDS011;41041;43.162;20.538;2023-03-21T05:31:00;26.98;;;15.20;;
55150;SDS011;41041;43.162;20.538;2023-03-21T05:33:26;28.95;;;14.88;;
55150;SDS011;41041;43.162;20.538;2023-03-21T05:35:53;23.33;;;12.98;;
55150;SDS011;41041;43.162;20.538;2023-03-21T05:40:48;26.50;;;14.60;;
55150;SDS011;41041;43.162;20.538;2023-03-21T05:43:15;28.92;;;15.20;;
55150;SDS011;41041;43.162;20.538;2023-03-21T05:45:53;27.73;;;15.32;;
55150;SDS011;41041;43.162;20.538;2023-03-21T05:48:19;33.78;;;17.77;;
55150;SDS011;41041;43.162;20.538;2023-03-21T05:50:45;32.75;;;18.80;;
55150;SDS011;41041;43.162;20.538;2023-03-21T05:53:17;37.97;;;18.83;;
55150;SDS011;41041;43.162;20.538;2023-03-21T05:55:43;27.40;;;15.32;;
55150;SDS011;41041;43.162;20.538;2023-03-21T05:58:10;33.90;;;18.52;;
55150;SDS011;41041;43.162;20.538;2023-03-21T06:00:46;40.00;;;18.20;;
55150;SDS011;41041;43.162;20.538;2023-03-21T06:03:12;44.42;;;23.98;;
55150;SDS011;41041;43.162;20.538;2023-03-21T06:05:38;48.17;;;26.60;;
55150;SDS011;41041;43.162;20.538;2023-03-21T06:08:04;37.13;;;22.23;;
55150;SDS011;41041;43.162;20.538;2023-03-21T06:10:31;36.85;;;20.52;;
55150;SDS011;41041;43.162;20.538;2023-03-21T06:12:57;50.17;;;27.88;;
55150;SDS011;41041;43.162;20.538;2023-03-21T06:15:23;31.73;;;18.20;;
55150;SDS011;41041;43.162;20.538;2023-03-21T06:17:50;30.27;;;16.67;;
55150;SDS011;41041;43.162;20.538;2023-03-21T06:20:16;35.15;;;18.25;;
55150;SDS011;41041;43.162;20.538;2023-03-21T06:22:42;32.45;;;19.70;;
55150;SDS011;41041;43.162;20.538;2023-03-21T06:25:08;50.15;;;27.13;;
55150;SDS011;41041;43.162;20.538;2023-03-21T06:27:35;86.82;;;29.02;;
55150;SDS011;41041;43.162;20.538;2023-03-21T06:30:02;81.28;;;27.65;;
55150;SDS011;41041;43.162;20.538;2023-03-21T06:32:28;66.53;;;26.77;;
55150;SDS011;41041;43.162;20.538;2023-03-21T06:34:55;55.97;;;28.75;;
55150;SDS011;41041;43.162;20.538;2023-03-21T06:37:21;49.08;;;27.83;;
55150;SDS011;41041;43.162;20.538;2023-03-21T06:39:48;57.38;;;29.15;;
55150;SDS011;41041;43.162;20.538;2023-03-21T06:42:18;59.75;;;33.22;;
55150;SDS011;41041;43.162;20.538;2023-03-21T06:44:44;52.10;;;29.17;;
55150;SDS011;41041;43.162;20.538;2023-03-21T06:47:10;50.38;;;29.80;;
55150;SDS011;41041;43.162;20.538;2023-03-21T06:49:36;58.42;;;31.80;;
55150;SDS011;41041;43.162;20.538;2023-03-21T06:52:19;59.30;;;29.98;;
55150;SDS011;41041;43.162;20.538;2023-03-21T06:54:45;50.70;;;30.50;;
55150;SDS011;41041;43.162;20.538;2023-03-21T06:57:11;61.55;;;34.95;;
55150;SDS011;41041;43.162;20.538;2023-03-21T06:59:37;64.57;;;37.22;;
55150;SDS011;41041;43.162;20.538;2023-03-21T07:02:05;66.90;;;35.88;;
55150;SDS011;41041;43.162;20.538;2023-03-21T07:04:35;69.40;;;36.50;;
55150;SDS011;41041;43.162;20.538;2023-03-21T07:07:07;78.85;;;38.08;;
55150;SDS011;41041;43.162;20.538;2023-03-21T07:09:40;63.60;;;35.08;;
55150;SDS011;41041;43.162;20.538;2023-03-21T07:12:11;63.35;;;36.75;;
55150;SDS011;41041;43.162;20.538;2023-03-21T07:14:40;66.82;;;37.58;;
55150;SDS011;41041;43.162;20.538;2023-03-21T07:17:06;66.20;;;40.20;;
55150;SDS011;41041;43.162;20.538;2023-03-21T07:19:32;67.72;;;40.45;;
55150;SDS011;41041;43.162;20.538;2023-03-21T07:21:57;76.53;;;42.50;;
55150;SDS011;41041;43.162;20.538;2023-03-21T07:24:25;100.60;;;50.22;;
55150;SDS011;41041;43.162;20.538;2023-03-21T07:26:51;130.07;;;70.30;;
55150;SDS011;41041;43.162;20.538;2023-03-21T07:29:17;93.50;;;51.00;;
55150;SDS011;41041;43.162;20.538;2023-03-21T07:31:45;80.20;;;40.53;;
55150;SDS011;41041;43.162;20.538;2023-03-21T07:34:11;88.45;;;47.17;;
55150;SDS011;41041;43.162;20.538;2023-03-21T07:36:39;97.18;;;48.65;;
55150;SDS011;41041;43.162;20.538;2023-03-21T07:39:05;81.13;;;46.65;;
55150;SDS011;41041;43.162;20.538;2023-03-21T07:41:31;79.22;;;43.05;;
55150;SDS011;41041;43.162;20.538;2023-03-21T07:43:57;79.72;;;42.15;;
55150;SDS011;41041;43.162;20.538;2023-03-21T07:49:27;91.07;;;45.63;;
55150;SDS011;41041;43.162;20.538;2023-03-21T07:51:53;91.03;;;52.40;;
55150;SDS011;41041;43.162;20.538;2023-03-21T07:54:18;88.60;;;41.78;;
55150;SDS011;41041;43.162;20.538;2023-03-21T07:56:46;97.93;;;45.63;;
55150;SDS011;41041;43.162;20.538;2023-03-21T07:59:12;65.53;;;36.78;;
55150;SDS011;41041;43.162;20.538;2023-03-21T08:01:38;84.97;;;41.95;;
55150;SDS011;41041;43.162;20.538;2023-03-21T08:04:04;79.20;;;42.88;;
55150;SDS011;41041;43.162;20.538;2023-03-21T08:06:30;71.45;;;41.60;;
55150;SDS011;41041;43.162;20.538;2023-03-21T08:08:57;79.15;;;42.78;;
55150;SDS011;41041;43.162;20.538;2023-03-21T08:11:23;77.40;;;42.05;;
55150;SDS011;41041;43.162;20.538;2023-03-21T08:13:48;75.05;;;44.30;;
55150;SDS011;41041;43.162;20.538;2023-03-21T08:16:15;74.55;;;41.60;;
55150;SDS011;41041;43.162;20.538;2023-03-21T08:21:13;73.97;;;36.33;;
55150;SDS011;41041;43.162;20.538;2023-03-21T08:23:39;68.28;;;34.33;;
55150;SDS011;41041;43.162;20.538;2023-03-21T08:26:05;64.82;;;31.92;;
55150;SDS011;41041;43.162;20.538;2023-03-21T08:28:32;55.67;;;29.75;;
55150;SDS011;41041;43.162;20.538;2023-03-21T08:30:58;62.60;;;30.23;;
55150;SDS011;41041;43.162;20.538;2023-03-21T08:33:24;55.50;;;30.85;;
55150;SDS011;41041;43.162;20.538;2023-03-21T08:35:50;59.97;;;30.65;;
55150;SDS011;41041;43.162;20.538;2023-03-21T08:38:15;74.18;;;32.88;;
55150;SDS011;41041;43.162;20.538;2023-03-21T08:40:41;65.07;;;30.98;;
55150;SDS011;41041;43.162;20.538;2023-03-21T08:43:07;59.78;;;31.25;;
55150;SDS011;41041;43.162;20.538;2023-03-21T08:45:32;76.85;;;31.90;;
55150;SDS011;41041;43.162;20.538;2023-03-21T08:47:58;76.60;;;34.08;;
55150;SDS011;41041;43.162;20.538;2023-03-21T08:50:25;57.58;;;29.77;;
55150;SDS011;41041;43.162;20.538;2023-03-21T08:52:53;60.17;;;29.13;;
55150;SDS011;41041;43.162;20.538;2023-03-21T08:55:19;54.97;;;29.75;;
55150;SDS011;41041;43.162;20.538;2023-03-21T08:57:45;57.00;;;32.80;;
55150;SDS011;41041;43.162;20.538;2023-03-21T09:00:13;55.30;;;31.77;;
55150;SDS011;41041;43.162;20.538;2023-03-21T09:02:41;50.80;;;32.63;;
55150;SDS011;41041;43.162;20.538;2023-03-21T09:07:38;49.88;;;27.17;;
55150;SDS011;41041;43.162;20.538;2023-03-21T09:10:05;47.42;;;24.90;;
55150;SDS011;41041;43.162;20.538;2023-03-21T09:12:32;52.28;;;21.92;;
55150;SDS011;41041;43.162;20.538;2023-03-21T09:14:59;31.85;;;17.27;;
55150;SDS011;41041;43.162;20.538;2023-03-21T09:17:27;32.30;;;18.15;;
55150;SDS011;41041;43.162;20.538;2023-03-21T09:19:53;30.08;;;15.75;;
55150;SDS011;41041;43.162;20.538;2023-03-21T09:22:20;24.00;;;13.18;;
55150;SDS011;41041;43.162;20.538;2023-03-21T09:24:47;23.90;;;12.93;;
55150;SDS011;41041;43.162;20.538;2023-03-21T09:27:14;27.20;;;13.48;;
55150;SDS011;41041;43.162;20.538;2023-03-21T09:29:42;28.52;;;13.60;;
55150;SDS011;41041;43.162;20.538;2023-03-21T09:32:09;27.90;;;13.02;;
55150;SDS011;41041;43.162;20.538;2023-03-21T09:34:38;22.88;;;12.55;;
55150;SDS011;41041;43.162;20.538;2023-03-21T09:37:08;23.13;;;12.63;;
55150;SDS011;41041;43.162;20.538;2023-03-21T09:43:05;30.73;;;13.82;;
55150;SDS011;41041;43.162;20.538;2023-03-21T09:51:41;21.33;;;12.60;;
55150;SDS011;41041;43.162;20.538;2023-03-21T09:57:30;24.33;;;12.38;;
55150;SDS011;41041;43.162;20.538;2023-03-21T09:59:55;26.70;;;12.00;;
55150;SDS011;41041;43.162;20.538;2023-03-21T10:02:39;27.55;;;13.02;;
55150;SDS011;41041;43.162;20.538;2023-03-21T10:05:18;24.42;;;13.48;;
55150;SDS011;41041;43.162;20.538;2023-03-21T10:08:05;40.90;;;15.95;;
55150;SDS011;41041;43.162;20.538;2023-03-21T10:10:49;76.63;;;17.10;;
55150;SDS011;41041;43.162;20.538;2023-03-21T10:15:57;25.48;;;15.35;;
55150;SDS011;41041;43.162;20.538;2023-03-21T10:18:25;28.10;;;14.60;;
55150;SDS011;41041;43.162;20.538;2023-03-21T10:20:54;25.83;;;13.77;;
55150;SDS011;41041;43.162;20.538;2023-03-21T10:23:21;40.13;;;14.32;;
55150;SDS011;41041;43.162;20.538;2023-03-21T10:28:28;27.48;;;13.68;;
55150;SDS011;41041;43.162;20.538;2023-03-21T10:31:04;16.13;;;9.75;;
55150;SDS011;41041;43.162;20.538;2023-03-21T10:33:36;11.00;;;7.53;;
55150;SDS011;41041;43.162;20.538;2023-03-21T10:36:07;18.35;;;9.80;;
55150;SDS011;41041;43.162;20.538;2023-03-21T10:38:35;20.75;;;10.82;;
55150;SDS011;41041;43.162;20.538;2023-03-21T10:41:10;16.10;;;7.63;;
55150;SDS011;41041;43.162;20.538;2023-03-21T10:43:37;7.55;;;4.35;;
55150;SDS011;41041;43.162;20.538;2023-03-21T10:46:07;9.02;;;4.53;;
55150;SDS011;41041;43.162;20.538;2023-03-21T10:48:35;9.10;;;4.63;;
55150;SDS011;41041;43.162;20.538;2023-03-21T10:51:01;11.43;;;4.57;;
55150;SDS011;41041;43.162;20.538;2023-03-21T10:53:31;9.93;;;4.43;;
55150;SDS011;41041;43.162;20.538;2023-03-21T10:56:00;8.38;;;4.53;;
55150;SDS011;41041;43.162;20.538;2023-03-21T10:58:32;8.98;;;5.10;;
55150;SDS011;41041;43.162;20.538;2023-03-21T11:01:04;8.45;;;4.80;;
55150;SDS011;41041;43.162;20.538;2023-03-21T11:06:04;10.98;;;4.63;;
55150;SDS011;41041;43.162;20.538;2023-03-21T11:08:39;8.40;;;4.53;;
55150;SDS011;41041;43.162;20.538;2023-03-21T11:11:08;9.55;;;4.60;;
55150;SDS011;41041;43.162;20.538;2023-03-21T11:13:43;9.27;;;4.50;;
55150;SDS011;41041;43.162;20.538;2023-03-21T11:18:43;8.57;;;3.83;;
55150;SDS011;41041;43.162;20.538;2023-03-21T11:26:19;7.28;;;3.92;;
55150;SDS011;41041;43.162;20.538;2023-03-21T11:28:54;7.10;;;3.75;;
55150;SDS011;41041;43.162;20.538;2023-03-21T11:31:20;8.30;;;4.28;;
55150;SDS011;41041;43.162;20.538;2023-03-21T11:33:55;7.53;;;3.85;;
55150;SDS011;41041;43.162;20.538;2023-03-21T11:36:26;9.35;;;4.88;;
55150;SDS011;41041;43.162;20.538;2023-03-21T11:38:58;11.25;;;4.63;;
55150;SDS011;41041;43.162;20.538;2023-03-21T11:41:33;9.40;;;4.30;;
55150;SDS011;41041;43.162;20.538;2023-03-21T11:44:00;5.35;;;3.40;;
55150;SDS011;41041;43.162;20.538;2023-03-21T11:49:15;8.32;;;3.88;;
55150;SDS011;41041;43.162;20.538;2023-03-21T11:51:49;6.57;;;3.63;;
55150;SDS011;41041;43.162;20.538;2023-03-21T11:57:43;18.05;;;4.38;;
55150;SDS011;41041;43.162;20.538;2023-03-21T12:25:04;7.20;;;3.67;;
55150;SDS011;41041;43.162;20.538;2023-03-21T12:27:42;8.98;;;4.55;;
55150;SDS011;41041;43.162;20.538;2023-03-21T12:33:34;5.68;;;3.90;;
55150;SDS011;41041;43.162;20.538;2023-03-21T12:44:42;13.90;;;3.97;;
55150;SDS011;41041;43.162;20.538;2023-03-21T12:49:38;8.70;;;3.83;;
55150;SDS011;41041;43.162;20.538;2023-03-21T12:54:41;10.98;;;4.47;;
55150;SDS011;41041;43.162;20.538;2023-03-21T13:02:25;15.75;;;4.95;;
55150;SDS011;41041;43.162;20.538;2023-03-21T13:07:32;285.08;;;14.60;;
55150;SDS011;41041;43.162;20.538;2023-03-21T13:09:59;13.63;;;4.38;;
55150;SDS011;41041;43.162;20.538;2023-03-21T13:17:33;36.63;;;5.93;;
55150;SDS011;41041;43.162;20.538;2023-03-21T13:22:44;12.73;;;4.88;;
55150;SDS011;41041;43.162;20.538;2023-03-21T13:25:22;9.80;;;4.40;;
55150;SDS011;41041;43.162;20.538;2023-03-21T13:28:03;21.52;;;5.22;;
55150;SDS011;41041;43.162;20.538;2023-03-21T13:30:29;17.90;;;4.30;;
55150;SDS011;41041;43.162;20.538;2023-03-21T13:38:35;9.32;;;4.60;;
55150;SDS011;41041;43.162;20.538;2023-03-21T13:41:08;23.55;;;6.22;;
55150;SDS011;41041;43.162;20.538;2023-03-21T13:46:59;15.80;;;5.15;;
55150;SDS011;41041;43.162;20.538;2023-03-21T13:52:23;15.88;;;6.10;;
55150;SDS011;41041;43.162;20.538;2023-03-21T13:54:54;21.90;;;7.35;;
55150;SDS011;41041;43.162;20.538;2023-03-21T13:59:46;16.25;;;6.47;;
55150;SDS011;41041;43.162;20.538;2023-03-21T14:02:34;19.85;;;6.13;;
55150;SDS011;41041;43.162;20.538;2023-03-21T14:05:04;14.90;;;6.20;;
55150;SDS011;41041;43.162;20.538;2023-03-21T14:07:42;12.30;;;6.40;;
55150;SDS011;41041;43.162;20.538;2023-03-21T14:12:50;22.52;;;7.95;;
55150;SDS011;41041;43.162;20.538;2023-03-21T14:15:38;11.35;;;7.25;;
55150;SDS011;41041;43.162;20.538;2023-03-21T14:18:13;29.92;;;11.82;;
55150;SDS011;41041;43.162;20.538;2023-03-21T14:20:40;13.77;;;6.13;;
55150;SDS011;41041;43.162;20.538;2023-03-21T14:23:13;11.05;;;5.93;;
55150;SDS011;41041;43.162;20.538;2023-03-21T14:25:43;9.13;;;6.07;;
55150;SDS011;41041;43.162;20.538;2023-03-21T14:28:25;10.52;;;6.40;;
55150;SDS011;41041;43.162;20.538;2023-03-21T14:30:57;13.00;;;5.90;;
55150;SDS011;41041;43.162;20.538;2023-03-21T14:33:38;20.33;;;6.75;;
55150;SDS011;41041;43.162;20.538;2023-03-21T14:39:41;27.65;;;6.70;;
55150;SDS011;41041;43.162;20.538;2023-03-21T14:42:40;16.80;;;6.50;;
55150;SDS011;41041;43.162;20.538;2023-03-21T14:45:29;10.25;;;6.28;;
55150;SDS011;41041;43.162;20.538;2023-03-21T14:48:09;8.40;;;6.10;;
55150;SDS011;41041;43.162;20.538;2023-03-21T14:53:55;10.32;;;6.18;;
55150;SDS011;41041;43.162;20.538;2023-03-21T14:56:24;10.48;;;6.55;;
55150;SDS011;41041;43.162;20.538;2023-03-21T14:58:51;18.30;;;7.30;;
55150;SDS011;41041;43.162;20.538;2023-03-21T15:01:24;17.58;;;8.88;;
55150;SDS011;41041;43.162;20.538;2023-03-21T15:03:53;14.48;;;8.90;;
55150;SDS011;41041;43.162;20.538;2023-03-21T15:06:21;15.30;;;6.38;;
55150;SDS011;41041;43.162;20.538;2023-03-21T15:08:54;19.38;;;9.82;;
55150;SDS011;41041;43.162;20.538;2023-03-21T15:11:27;30.98;;;10.90;;
55150;SDS011;41041;43.162;20.538;2023-03-21T15:19:41;22.15;;;7.28;;
55150;SDS011;41041;43.162;20.538;2023-03-21T15:24:42;15.52;;;6.88;;
55150;SDS011;41041;43.162;20.538;2023-03-21T15:27:14;20.65;;;7.22;;
55150;SDS011;41041;43.162;20.538;2023-03-21T15:29:41;26.92;;;7.95;;
55150;SDS011;41041;43.162;20.538;2023-03-21T15:32:15;15.07;;;7.60;;
55150;SDS011;41041;43.162;20.538;2023-03-21T15:34:42;12.35;;;8.18;;
55150;SDS011;41041;43.162;20.538;2023-03-21T15:37:13;13.25;;;8.55;;
55150;SDS011;41041;43.162;20.538;2023-03-21T15:39:40;12.98;;;9.55;;
55150;SDS011;41041;43.162;20.538;2023-03-21T15:44:52;14.68;;;8.07;;
55150;SDS011;41041;43.162;20.538;2023-03-21T15:47:37;14.73;;;8.20;;
55150;SDS011;41041;43.162;20.538;2023-03-21T15:50:08;20.90;;;8.35;;
55150;SDS011;41041;43.162;20.538;2023-03-21T15:52:35;27.10;;;10.48;;
55150;SDS011;41041;43.162;20.538;2023-03-21T15:55:01;74.68;;;13.13;;
55150;SDS011;41041;43.162;20.538;2023-03-21T15:57:39;71.22;;;12.23;;
55150;SDS011;41041;43.162;20.538;2023-03-21T16:03:18;55.67;;;24.20;;
55150;SDS011;41041;43.162;20.538;2023-03-21T16:08:47;21.92;;;9.80;;
55150;SDS011;41041;43.162;20.538;2023-03-21T16:14:25;22.95;;;9.38;;
55150;SDS011;41041;43.162;20.538;2023-03-21T16:16:54;31.83;;;9.45;;
55150;SDS011;41041;43.162;20.538;2023-03-21T16:19:22;17.60;;;9.02;;
55150;SDS011;41041;43.162;20.538;2023-03-21T16:21:48;27.13;;;8.20;;
55150;SDS011;41041;43.162;20.538;2023-03-21T16:24:14;54.95;;;9.93;;
55150;SDS011;41041;43.162;20.538;2023-03-21T16:26:44;27.67;;;8.38;;
55150;SDS011;41041;43.162;20.538;2023-03-21T16:29:14;36.60;;;11.48;;
55150;SDS011;41041;43.162;20.538;2023-03-21T16:31:40;24.77;;;9.18;;
55150;SDS011;41041;43.162;20.538;2023-03-21T16:34:06;20.25;;;8.82;;
55150;SDS011;41041;43.162;20.538;2023-03-21T16:36:34;26.40;;;10.32;;
55150;SDS011;41041;43.162;20.538;2023-03-21T16:41:42;26.80;;;9.85;;
55150;SDS011;41041;43.162;20.538;2023-03-21T16:44:07;36.13;;;12.00;;
55150;SDS011;41041;43.162;20.538;2023-03-21T16:46:34;22.15;;;9.27;;
55150;SDS011;41041;43.162;20.538;2023-03-21T16:48:59;19.48;;;8.95;;
55150;SDS011;41041;43.162;20.538;2023-03-21T16:51:29;18.77;;;9.13;;
55150;SDS011;41041;43.162;20.538;2023-03-21T16:53:57;38.80;;;9.57;;
55150;SDS011;41041;43.162;20.538;2023-03-21T16:56:28;38.83;;;10.70;;
55150;SDS011;41041;43.162;20.538;2023-03-21T16:59:01;27.00;;;11.38;;
55150;SDS011;41041;43.162;20.538;2023-03-21T17:01:27;21.92;;;10.93;;
55150;SDS011;41041;43.162;20.538;2023-03-21T17:03:54;22.85;;;10.93;;
55150;SDS011;41041;43.162;20.538;2023-03-21T17:06:22;18.13;;;10.10;;
55150;SDS011;41041;43.162;20.538;2023-03-21T17:08:50;20.45;;;10.63;;
55150;SDS011;41041;43.162;20.538;2023-03-21T17:11:18;33.05;;;10.98;;
55150;SDS011;41041;43.162;20.538;2023-03-21T17:13:46;29.48;;;10.30;;
55150;SDS011;41041;43.162;20.538;2023-03-21T17:19:35;32.05;;;9.90;;
55150;SDS011;41041;43.162;20.538;2023-03-21T17:22:01;24.67;;;9.05;;
55150;SDS011;41041;43.162;20.538;2023-03-21T17:24:26;16.40;;;8.88;;
55150;SDS011;41041;43.162;20.538;2023-03-21T17:26:53;51.00;;;10.35;;
55150;SDS011;41041;43.162;20.538;2023-03-21T17:29:18;127.05;;;11.50;;
55150;SDS011;41041;43.162;20.538;2023-03-21T17:31:44;66.35;;;9.68;;
55150;SDS011;41041;43.162;20.538;2023-03-21T17:34:12;25.17;;;8.43;;
55150;SDS011;41041;43.162;20.538;2023-03-21T17:37:00;26.95;;;9.02;;
55150;SDS011;41041;43.162;20.538;2023-03-21T17:39:25;39.67;;;8.75;;
55150;SDS011;41041;43.162;20.538;2023-03-21T17:44:39;38.08;;;11.65;;
55150;SDS011;41041;43.162;20.538;2023-03-21T17:47:05;29.35;;;8.57;;